CheckWX is a tool to help pilots better visualize weather data.  It is not intended as a substitute for an official pre-flight weather briefing.

05:18:05 UTC

KMKO METAR
Muskogee-Davis Regional Airport
Muskogee, Oklahoma, USA
Current

25 mins ago

KMKO 240453Z AUTO 29023G28KT 10SM BKN033 04/M01 A3004 RMK AO2 PK WND 28029/0354 RAB0357E16 SLP173 P0000 T00391006
Observed
Feb-24 @ 04:53 UTC
Wind
  • 290° at 23 KTS
  • Gusting to 28 KTS
Visibility
10 SM
Flight Rules
VFR
Cloud Levels
  • Broken at 3,300' AGL
Temperature
C / 39°F
Dewpoint
-1°C / 30°F
Humidity
70%
Altimeter
30.04" Hg
Pressure
1017.3 hPa
Current Rain
0.01"
Previous

1 hour ago

KMKO 240353Z AUTO 29015G26KT 10SM OVC033 05/M01 A3000 RMK AO2 PK WND 29036/0326 RAE42 SLP158 P0000 T00501006
Observed
Feb-24 @ 03:53 UTC
Wind
  • 290° at 15 KTS
  • Gusting to 26 KTS
Visibility
10 SM
Flight Rules
VFR
Cloud Levels
  • Overcast at 3,300' AGL
Temperature
C / 41°F
Dewpoint
-1°C / 30°F
Humidity
66%
Altimeter
30" Hg
Pressure
1015.8 hPa
Current Rain
0.01"
Previous

2 hours ago

KMKO 240253Z AUTO 29019G34KT 10SM -RA FEW036 05/M01 A2994 RMK AO2 PK WND 29038/0205 SLP139 P0000 60000 T00501006 51085
Observed
Feb-24 @ 02:53 UTC
Wind
  • 290° at 19 KTS
  • Gusting to 34 KTS
Visibility
10 SM
Flight Rules
VFR
Conditions
Light Rain
Cloud Levels
  • Few at 3,600' AGL
Temperature
C / 41°F
Dewpoint
-1°C / 30°F
Humidity
66%
Altimeter
29.94" Hg
Pressure
1013.9 hPa
Current Rain
0.01"